Nearby METAR Reports

 

KIAG - Niagara Falls, New York, USA
Distance from station: W 12mi, 20km
Updated: 05/26/2020 3:53pm
Clear
Clear
 Wind from WSW
Wind: WSW 10 mph , 17 km/h
Temperature: 90°F , 32°C
Heat Index: 91°F , 33°C
Dew Point: 63°F , 17°C
Humidity: 41%
Barometer: 1017.9 hPa
Clouds: Clear
Visibility: 10 miles , 16 km
2020/05/26 19:53 KIAG 261953Z 24009KT 190V280 10SM CLR 32/17 A3006 RMK AO2 SLP174 T03220172
KBUF - Buffalo/Cheektow, New York, USA
Distance from station: S 13mi, 21km
Updated: 05/26/2020 3:54pm
Few Clouds
Few Clouds
 Wind from varies
Wind: varies 7 mph , 11 km/h, Gust: 18 mph , 30 km/h
Temperature: 91°F , 33°C
Dew Point: 63°F , 17°C
Humidity: 38%
Barometer: 1018.3 hPa
Clouds: Few Clouds
Visibility: 10 miles , 16 km
Cloud details: Few Clouds 6000 ft
2020/05/26 19:54 KBUF 261954Z VRB06G16KT 10SM FEW060 33/17 A3007 RMK AO2 SLP176 CB DSNT NW-N T03280167
 
KROC - Rochester, New York, USA
Distance from station: E 51mi, 82km
Updated: 05/26/2020 3:54pm
Few Clouds
Few Clouds
 Wind from WSW
Wind: WSW 9 mph , 15 km/h
Temperature: 91°F , 33°C
Dew Point: 61°F , 16°C
Humidity: 36%
Barometer: 1018.3 hPa
Clouds: Few Clouds
Visibility: 10 miles , 16 km
Cloud details: Few Clouds 6500 ft
2020/05/26 19:54 KROC 261954Z 24008KT 10SM FEW065 33/16 A3007 RMK AO2 SLP182 T03280161
CYSN - St. Catharines A, Ontario, Canada
Distance from station: WNW 25mi, 40km
Updated: 05/26/2020 4:00pm
Few Clouds
Few Clouds
 Wind from NNE
Wind: NNE 8 mph , 13 km/h
Temperature: 86°F , 30°C
Heat Index: 89°F , 32°C
Dew Point: 68°F , 20°C
Humidity: 55%
Barometer: 1017.6 hPa
Clouds: Few Clouds
Visibility: 15 miles , 24 km
Cloud details: Few Clouds 5000 ft
Few Clouds 14000 ft
2020/05/26 20:00 CYSN 262000Z 02007KT 15SM FEW050 FEW140 30/20 A3005 RMK CU1AC1 SLP175 DENSITY ALT 2000FT
 
KOLE - Olean, New York, USA
Distance from station: SSE 63mi, 102km
Updated: 05/26/2020 4:15pm
Partly cloudy
Partly cloudy
 Wind from SW
Wind: SW 7 mph , 11 km/h
Temperature: 84°F , 29°C
Dew Point: 55°F , 13°C
Humidity: 37%
Barometer: 1021.7 hPa
Clouds: Partly cloudy
Visibility: 10 miles , 16 km
Cloud details: Partly cloudy 7000 ft
2020/05/26 20:15 KOLE 262015Z AUTO 23006KT 10SM SCT070 29/13 A3017 RMK AO2
KJHW - Jamestown, New York, USA
Distance from station: SSW 74mi, 119km
Updated: 05/26/2020 3:56pm
Clear
Clear
 Wind from SE
Wind: SE 7 mph , 11 km/h
Temperature: 84°F , 29°C
Heat Index: 84°F , 29°C
Dew Point: 59°F , 15°C
Humidity: 43%
Barometer: 1020.7 hPa
Clouds: Clear
Visibility: 10 miles , 16 km
2020/05/26 19:56 KJHW 261956Z AUTO 13006KT 10SM CLR 29/15 A3014 RMK AO2 SLP198 T02940150
 
CWWZ - Port Weller (mar, Ontario, Canada
Distance from station: WNW 28mi, 45km
Updated: 05/26/2020 4:00pm

 Wind from E
Wind: E 13 mph , 20 km/h
Temperature: 63°F , 17°C
Dew Point: 61°F , 16°C
Humidity: 94%
2020/05/26 20:00 CWWZ 262000Z AUTO 08011KT 17/16 RMK AO1 SLP177 T01710155 57012
CWPC - Port Colborne(Au, Ontario, Canada
Distance from station: WSW 33mi, 53km
Updated: 05/26/2020 4:00pm

 Wind from W
Wind: W 7 mph , 11 km/h
Temperature: 84°F , 29°C
Heat Index: 84°F , 29°C
Dew Point: 61°F , 16°C
Humidity: 45%
2020/05/26 20:00 CWPC 262000Z AUTO 28006KT 29/16 RMK AO1 SLP182 T02900156 56014
 
CXVN - Vineland (au8), Ontario, Canada
Distance from station: W 36mi, 58km
Updated: 05/26/2020 4:00pm

 Wind from E
Wind: E 5 mph , 7 km/h
Temperature: 70°F , 21°C
Dew Point: 61°F , 16°C
Humidity: 73%
2020/05/26 20:00 CXVN 262000Z AUTO 08004KT 21/16 RMK AO1 SLP178 T02050159 57010
CYTZ - Toronto Il Vor, Ontario, Canada
Distance from station: NW 50mi, 81km
Updated: 05/26/2020 4:00pm
Clear
Clear
 Wind from ENE
Wind: ENE 6 mph , 9 km/h
Temperature: 77°F , 25°C
Dew Point: 66°F , 19°C
Humidity: 69%
Barometer: 1017.6 hPa
Clouds: Clear
Visibility: 9 miles , 14 km
2020/05/26 20:00 CYTZ 262000Z AUTO 07005KT 9SM CLR 25/19 A3005 RMK SLP178 DENSITY ALT 1200FT
 
CXTO - Toronto City, Ontario, Canada
Distance from station: NW 52mi, 84km
Updated: 05/26/2020 4:00pm

 
Temperature: 88°F , 31°C
Dew Point: 57°F , 14°C
Humidity: 35%
2020/05/26 20:00 CXTO 262000Z AUTO 31/14 RMK AO1 2PAST HR 8015 SLP183 P0001 T03110143 50002
KDKK - Dunkirk, New York, USA
Distance from station: SW 52mi, 84km
Updated: 05/26/2020 3:53pm
Clear
Clear
 Wind from N
Wind: N 9 mph , 15 km/h
Temperature: 84°F , 29°C
Heat Index: 85°F , 29°C
Dew Point: 64°F , 18°C
Humidity: 51%
Barometer: 1018.6 hPa
Clouds: Clear
Visibility: 10 miles , 16 km
2020/05/26 19:53 KDKK 261953Z AUTO 36008KT 10SM CLR 29/18 A3008 RMK AO2 SLP180 T02940178 $
 
CYOO - Oshawa, Ontario, Canada
Distance from station: N 56mi, 90km
Updated: 05/26/2020 4:00pm
Clear
Clear
 Wind from SSW
Wind: SSW 8 mph , 13 km/h
Temperature: 86°F , 30°C
Heat Index: 87°F , 31°C
Dew Point: 63°F , 17°C
Humidity: 46%
Barometer: 1017.9 hPa
Clouds: Clear
Visibility: 9 miles , 14 km
2020/05/26 20:00 CYOO 262000Z AUTO 21007KT 9SM CLR 30/17 A3006 RMK SLP181 DENSITY ALT 2100FT
CWWB - Burlington Piers, Ontario, Canada
Distance from station: WNW 56mi, 91km
Updated: 05/26/2020 4:00pm

 Wind from NNE
Wind: NNE 5 mph , 7 km/h
Temperature: 63°F , 17°C
Dew Point: 59°F , 15°C
Humidity: 88%
2020/05/26 20:00 CWWB 262000Z AUTO 02004KT 17/15 RMK AO1 SLP179 T01690154 58012
 
CYYZ - Toronto/Pearson, Ontario, Canada
Distance from station: NW 60mi, 96km
Updated: 05/26/2020 4:00pm
Few Clouds
Few Clouds
 Wind from SSE
Wind: SSE 9 mph , 15 km/h
Temperature: 88°F , 31°C
Heat Index: 91°F , 33°C
Dew Point: 66°F , 19°C
Humidity: 49%
Barometer: 1017.9 hPa
Clouds: Few Clouds
Visibility: 15 miles , 24 km
Cloud details: Few Clouds 5000 ft
Few Clouds 15000 ft
2020/05/26 20:00 CYYZ 262000Z 16008KT 15SM FEW050 FEW150 31/19 A3006 RMK SC1AC1 SC TR SLP177 DENSITY ALT 2400FT
CYKZ - Toronto Buttonvi, Ontario, Canada
Distance from station: NW 62mi, 99km
Updated: 01/03/2019 4:00am
NOT Current
Partly cloudy
Partly cloudy
 Wind from WSW
Wind: WSW 5 mph , 7 km/h
Temperature: 27°F , -3°C
Wind Chill: 21°F , -6°C
Dew Point: 23°F , -5°C
Humidity: 86%
Barometer: 1010.8 hPa
Clouds: Partly cloudy
Visibility: 15 miles , 24 km
Cloud details: Partly cloudy 4000 ft
2019/01/03 09:00 CYKZ 030900Z 25004KT 15SM SCT040 M03/M05 A2985 RMK SC3 LAST STFD OBS FAREWELL SLP118
 
CXHM - Hamilton Rbg Cs, Ontario, Canada
Distance from station: W 62mi, 100km
Updated: 05/26/2020 4:00pm

 Wind from E
Wind: E 5 mph , 7 km/h
Temperature: 81°F , 27°C
Heat Index: 83°F , 28°C
Dew Point: 66°F , 19°C
Humidity: 62%
2020/05/26 20:00 CXHM 262000Z AUTO 08004KT 27/19 RMK AO1 SLP175 T02720192 57011
KDSV - Dansville, New York, USA
Distance from station: SE 62mi, 100km
Updated: 05/26/2020 3:54pm
Clear
Clear
 Wind from SSE
Wind: SSE 15 mph , 24 km/h, Gust: 18 mph , 30 km/h
Temperature: 91°F , 33°C
Dew Point: 61°F , 16°C
Humidity: 36%
Barometer: 1018.6 hPa
Clouds: Clear
Visibility: 10 miles , 16 km
2020/05/26 19:54 KDSV 261954Z AUTO 16013G16KT 10SM CLR 33/16 A3008 RMK AO2 SLP189 T03280161
 
CYHM - Hamilton Airport, Ontario, Canada
Distance from station: W 63mi, 101km
Updated: 05/26/2020 4:00pm
Few Clouds
Few Clouds
 Wind from S
Wind: S 12 mph , 19 km/h
Temperature: 88°F , 31°C
Heat Index: 90°F , 32°C
Dew Point: 64°F , 18°C
Humidity: 46%
Barometer: 1018.3 hPa
Clouds: Few Clouds
Visibility: 12 miles , 19 km
Cloud details: Few Clouds 4500 ft
Few Clouds 25000 ft
2020/05/26 20:00 CYHM 262000Z 19010KT 12SM FEW045TCU FEW250 31/18 A3007 RMK TCU1CI1 TCU TR SLP182 DENSITY ALT 2700FT
CWNC - Cobourg (mars), Ontario, Canada
Distance from station: NNE 63mi, 102km
Updated: 05/26/2020 4:00pm

 Wind from SE
Wind: SE 2 mph , 4 km/h
Temperature: 73°F , 23°C
Dew Point: 66°F , 19°C
Humidity: 78%
2020/05/26 20:00 CWNC 262000Z AUTO 13002KT 23/19 RMK AO1 SLP183 T02250194 58014